Time;durP1;ratioP1;P1;durP2;ratioP2;P2;SDS_P1;SDS_P2;PMS_P1;PMS_P2;Temp;Humidity;BMP_temperature;BMP_pressure;BME280_temperature;BME280_humidity;BME280_pressure;Samples;Min_cycle;Max_cycle;Signal;HPM_P1;HPM_P2
2022/12/08 00:00:07;;;;;;;9.05;5.40;;;;;;;;;;5031295;28;20025;-81
2022/12/08 00:02:52;;;;;;;9.93;5.10;;;;;;;;;;5017188;28;20059;-72
2022/12/08 00:11:45;;;;;;;8.70;4.85;;;;;;;;;;5021133;28;20033;-73
2022/12/08 00:14:32;;;;;;;9.05;5.20;;;;;;;;;;5028123;28;20403;-73
2022/12/08 00:17:17;;;;;;;11.38;5.32;;;;;;;;;;5020504;28;20480;-70
2022/12/08 00:20:03;;;;;;;10.40;5.45;;;;;;;;;;5023314;28;20055;-74
2022/12/08 00:22:48;;;;;;;9.18;5.70;;;;;;;;;;5032536;28;20107;-77
2022/12/08 00:25:36;;;;;;;10.63;5.72;;;;;;;;;;5033482;28;20029;-76
2022/12/08 00:28:21;;;;;;;11.10;5.32;;;;;;;;;;5031975;28;20025;-76
2022/12/08 00:31:07;;;;;;;10.30;5.30;;;;;;;;;;5028434;28;20021;-76
2022/12/08 00:33:53;;;;;;;12.38;5.55;;;;;;;;;;5036655;28;20028;-76
2022/12/08 00:36:38;;;;;;;13.32;7.13;;;;;;;;;;5050655;28;20444;-76
2022/12/08 00:39:23;;;;;;;14.10;7.25;;;;;;;;;;5036606;28;20033;-76
2022/12/08 00:42:11;;;;;;;14.55;7.47;;;;;;;;;;5034279;28;20032;-77
2022/12/08 00:44:56;;;;;;;10.23;6.03;;;;;;;;;;5043338;28;20021;-77
2022/12/08 00:47:42;;;;;;;9.77;4.90;;;;;;;;;;5031527;28;20021;-76
2022/12/08 00:50:27;;;;;;;9.27;5.55;;;;;;;;;;5043736;28;20308;-75
2022/12/08 00:53:12;;;;;;;14.52;6.07;;;;;;;;;;5033907;28;20033;-76
2022/12/08 00:55:57;;;;;;;7.28;4.38;;;;;;;;;;5038759;28;20027;-69
2022/12/08 00:58:43;;;;;;;9.63;5.32;;;;;;;;;;5016586;28;20037;-72
2022/12/08 01:01:28;;;;;;;8.85;4.60;;;;;;;;;;5027321;28;20054;-73
2022/12/08 01:04:15;;;;;;;9.57;5.40;;;;;;;;;;5020132;28;20553;-72
2022/12/08 01:07:01;;;;;;;8.20;5.18;;;;;;;;;;5022586;28;20021;-72
2022/12/08 01:09:46;;;;;;;9.57;5.80;;;;;;;;;;5038320;28;20025;-72
2022/12/08 01:12:31;;;;;;;9.88;5.45;;;;;;;;;;5035854;28;20032;-80
2022/12/08 01:15:16;;;;;;;11.68;6.45;;;;;;;;;;5031028;28;20507;-72
2022/12/08 01:18:02;;;;;;;9.27;4.85;;;;;;;;;;5034564;28;20045;-77
2022/12/08 01:20:47;;;;;;;11.15;5.30;;;;;;;;;;5033126;28;20019;-76
2022/12/08 01:23:32;;;;;;;9.70;5.20;;;;;;;;;;5043478;28;20056;-77
2022/12/08 01:26:18;;;;;;;9.20;5.53;;;;;;;;;;5022950;28;20116;-76
2022/12/08 01:29:03;;;;;;;12.00;5.60;;;;;;;;;;5037495;28;20032;-77
2022/12/08 01:31:49;;;;;;;11.20;5.38;;;;;;;;;;5036065;28;20071;-71
2022/12/08 01:34:34;;;;;;;10.63;5.50;;;;;;;;;;5037913;28;20117;-71
2022/12/08 01:37:19;;;;;;;10.90;5.35;;;;;;;;;;5036196;28;20066;-72
2022/12/08 01:40:05;;;;;;;9.02;5.28;;;;;;;;;;5021790;28;20071;-71
2022/12/08 01:42:51;;;;;;;11.05;5.38;;;;;;;;;;5033919;28;20479;-73
2022/12/08 01:45:36;;;;;;;9.98;5.40;;;;;;;;;;5034531;28;20061;-70
2022/12/08 01:48:26;;;;;;;12.40;6.68;;;;;;;;;;5020966;28;20086;-71
2022/12/08 01:51:11;;;;;;;9.73;5.30;;;;;;;;;;5035019;28;20075;-77
2022/12/08 01:53:56;;;;;;;12.73;6.10;;;;;;;;;;5039436;28;20071;-75
2022/12/08 01:56:48;;;;;;;11.05;5.95;;;;;;;;;;5035499;28;20040;-76
2022/12/08 01:59:36;;;;;;;8.27;4.80;;;;;;;;;;5027076;28;20037;-76
2022/12/08 02:02:23;;;;;;;10.77;6.05;;;;;;;;;;5018982;28;20033;-75
2022/12/08 02:05:08;;;;;;;12.73;5.65;;;;;;;;;;5034066;28;20029;-76
2022/12/08 02:07:54;;;;;;;12.82;6.45;;;;;;;;;;5036170;28;20039;-71
2022/12/08 02:10:40;;;;;;;10.02;5.63;;;;;;;;;;5006782;28;20554;-76
2022/12/08 02:13:26;;;;;;;14.85;6.90;;;;;;;;;;5029511;28;20023;-69
2022/12/08 02:16:30;;;;;;;10.98;6.40;;;;;;;;;;5016943;28;20036;-70
2022/12/08 02:19:39;;;;;;;11.45;5.85;;;;;;;;;;5027772;28;20048;-69
2022/12/08 02:22:32;;;;;;;9.75;5.65;;;;;;;;;;5017679;28;20029;-68
2022/12/08 02:25:23;;;;;;;12.73;6.38;;;;;;;;;;5038533;28;20021;-68
2022/12/08 02:28:20;;;;;;;10.98;6.60;;;;;;;;;;5036210;28;20056;-77
2022/12/08 02:31:44;;;;;;;12.02;5.72;;;;;;;;;;5032786;28;20025;-76
2022/12/08 02:34:58;;;;;;;12.18;6.25;;;;;;;;;;4959658;28;20034;-78
2022/12/08 02:37:49;;;;;;;12.75;6.50;;;;;;;;;;4955564;28;20561;-75
2022/12/08 02:40:34;;;;;;;10.60;7.18;;;;;;;;;;5031564;28;20391;-76
2022/12/08 02:43:25;;;;;;;12.40;6.28;;;;;;;;;;5030591;28;20103;-76
2022/12/08 02:46:12;;;;;;;12.55;5.60;;;;;;;;;;5033638;28;20032;-70
2022/12/08 02:48:58;;;;;;;12.95;5.78;;;;;;;;;;5028632;28;20055;-77
2022/12/08 02:51:44;;;;;;;9.68;5.97;;;;;;;;;;5042143;28;20064;-77
2022/12/08 02:54:29;;;;;;;13.27;6.40;;;;;;;;;;5031456;28;20115;-77
2022/12/08 02:57:14;;;;;;;9.48;5.28;;;;;;;;;;5034322;28;20028;-75
2022/12/08 02:59:59;;;;;;;11.00;5.97;;;;;;;;;;5034020;28;20024;-75
2022/12/08 03:02:51;;;;;;;10.82;5.47;;;;;;;;;;5019386;28;20078;-72
2022/12/08 03:05:54;;;;;;;10.38;5.53;;;;;;;;;;5033439;28;20029;-72
2022/12/08 03:08:53;;;;;;;8.95;4.93;;;;;;;;;;5029411;28;20032;-69
2022/12/08 03:11:41;;;;;;;10.10;5.50;;;;;;;;;;5027437;28;20392;-68
2022/12/08 03:14:27;;;;;;;10.85;5.63;;;;;;;;;;5026013;28;20498;-68
2022/12/08 03:17:14;;;;;;;10.30;5.70;;;;;;;;;;5040468;28;20045;-68
2022/12/08 03:20:01;;;;;;;10.23;5.78;;;;;;;;;;5025357;28;20492;-69
2022/12/08 03:22:48;;;;;;;12.90;5.72;;;;;;;;;;5030516;28;20076;-80
2022/12/08 03:25:36;;;;;;;10.43;5.80;;;;;;;;;;5035942;28;20540;-76
2022/12/08 03:28:22;;;;;;;11.13;5.80;;;;;;;;;;5035877;28;20021;-74
2022/12/08 03:31:10;;;;;;;13.02;5.40;;;;;;;;;;5025694;28;20052;-73
2022/12/08 03:33:55;;;;;;;11.30;5.43;;;;;;;;;;5029450;28;20017;-74
2022/12/08 03:36:42;;;;;;;11.20;5.28;;;;;;;;;;5014571;28;20135;-73
2022/12/08 03:39:27;;;;;;;11.05;5.60;;;;;;;;;;5032419;28;20025;-73
2022/12/08 03:42:12;;;;;;;10.93;5.80;;;;;;;;;;5032494;28;20040;-74
2022/12/08 03:44:57;;;;;;;10.18;5.13;;;;;;;;;;5033192;28;20108;-80
2022/12/08 03:47:43;;;;;;;12.60;6.57;;;;;;;;;;5014940;28;20120;-79
2022/12/08 03:50:28;;;;;;;10.98;5.95;;;;;;;;;;5028066;28;20387;-79
2022/12/08 03:53:13;;;;;;;13.77;6.63;;;;;;;;;;5022172;28;20032;-81
2022/12/08 03:55:58;;;;;;;13.13;5.80;;;;;;;;;;5032106;28;20024;-79
2022/12/08 03:58:44;;;;;;;11.70;5.32;;;;;;;;;;5032636;28;20025;-71
2022/12/08 04:01:29;;;;;;;9.45;5.18;;;;;;;;;;5023923;28;20021;-70
2022/12/08 04:04:14;;;;;;;13.10;6.13;;;;;;;;;;5033084;28;20376;-69
2022/12/08 04:06:59;;;;;;;13.60;6.47;;;;;;;;;;5029102;28;20024;-69
2022/12/08 04:09:45;;;;;;;11.52;5.97;;;;;;;;;;5029043;28;20112;-69
2022/12/08 04:12:30;;;;;;;12.93;5.75;;;;;;;;;;5035789;28;20028;-69
2022/12/08 04:15:15;;;;;;;9.18;5.10;;;;;;;;;;5026702;28;20353;-68
2022/12/08 04:18:00;;;;;;;11.85;5.50;;;;;;;;;;5032742;28;20067;-69
2022/12/08 04:20:45;;;;;;;11.60;6.32;;;;;;;;;;5030940;28;20021;-70
2022/12/08 04:23:31;;;;;;;10.68;5.00;;;;;;;;;;5027266;28;20075;-70
2022/12/08 04:26:16;;;;;;;11.65;6.05;;;;;;;;;;5034758;28;20021;-71
2022/12/08 04:29:01;;;;;;;9.38;5.25;;;;;;;;;;5026197;28;20119;-72
2022/12/08 04:31:46;;;;;;;11.25;6.55;;;;;;;;;;5016156;28;20020;-72
2022/12/08 04:34:32;;;;;;;12.52;6.15;;;;;;;;;;5038738;28;20093;-71
2022/12/08 04:37:17;;;;;;;10.43;5.90;;;;;;;;;;5021670;28;20039;-73
2022/12/08 04:40:02;;;;;;;10.75;5.85;;;;;;;;;;5033052;28;20534;-71
2022/12/08 04:42:47;;;;;;;10.65;5.15;;;;;;;;;;5031624;28;20116;-74
2022/12/08 04:45:33;;;;;;;8.25;4.13;;;;;;;;;;5040614;28;20028;-74
2022/12/08 04:48:18;;;;;;;12.98;5.75;;;;;;;;;;5006360;28;20500;-70
2022/12/08 04:51:03;;;;;;;11.88;6.72;;;;;;;;;;5026014;28;20267;-71
2022/12/08 04:53:49;;;;;;;11.13;5.95;;;;;;;;;;5030724;28;20058;-73
2022/12/08 04:56:34;;;;;;;10.15;5.78;;;;;;;;;;5017779;28;20047;-68
2022/12/08 04:59:19;;;;;;;10.82;5.10;;;;;;;;;;5035928;28;20370;-69
2022/12/08 05:02:04;;;;;;;12.75;6.18;;;;;;;;;;5045663;28;20032;-69
2022/12/08 05:04:50;;;;;;;9.75;5.90;;;;;;;;;;5038312;28;20367;-68
2022/12/08 05:07:35;;;;;;;11.18;5.88;;;;;;;;;;5040062;28;20566;-70
2022/12/08 05:10:20;;;;;;;11.00;5.93;;;;;;;;;;5024742;28;20043;-71
2022/12/08 05:13:05;;;;;;;9.45;5.00;;;;;;;;;;5039529;28;20444;-75
2022/12/08 05:15:50;;;;;;;8.82;5.38;;;;;;;;;;5035396;28;20028;-73
2022/12/08 05:18:36;;;;;;;9.45;5.10;;;;;;;;;;5034793;28;20127;-73
2022/12/08 05:21:21;;;;;;;11.35;5.78;;;;;;;;;;5011137;28;20109;-73
2022/12/08 05:24:06;;;;;;;12.25;6.40;;;;;;;;;;5047169;28;20031;-75
2022/12/08 05:26:52;;;;;;;11.68;6.22;;;;;;;;;;5045905;28;20023;-75
2022/12/08 05:29:37;;;;;;;11.52;5.15;;;;;;;;;;5036809;28;20059;-75
2022/12/08 05:32:22;;;;;;;9.95;5.00;;;;;;;;;;5036406;28;20375;-76
2022/12/08 05:35:08;;;;;;;15.85;6.97;;;;;;;;;;5036585;28;20036;-68
2022/12/08 05:37:53;;;;;;;10.48;5.72;;;;;;;;;;5037854;28;20036;-69
2022/12/08 05:40:38;;;;;;;10.18;5.32;;;;;;;;;;5044522;28;20013;-68
2022/12/08 05:43:24;;;;;;;12.80;5.90;;;;;;;;;;5031005;28;20091;-69
2022/12/08 05:46:09;;;;;;;13.57;6.68;;;;;;;;;;5032904;28;20032;-69
2022/12/08 05:48:55;;;;;;;12.25;5.45;;;;;;;;;;5044783;28;20048;-75
2022/12/08 05:51:40;;;;;;;10.77;5.75;;;;;;;;;;5034593;28;20542;-76
2022/12/08 05:54:25;;;;;;;10.60;5.50;;;;;;;;;;5027683;28;20373;-75
2022/12/08 05:57:10;;;;;;;9.55;4.95;;;;;;;;;;5032336;28;20077;-75
2022/12/08 05:59:58;;;;;;;10.90;5.05;;;;;;;;;;5033622;28;20063;-77
2022/12/08 06:02:43;;;;;;;9.50;4.97;;;;;;;;;;5037105;28;20388;-77
2022/12/08 06:05:28;;;;;;;11.07;5.47;;;;;;;;;;5031518;28;20021;-75
2022/12/08 06:08:14;;;;;;;10.43;5.57;;;;;;;;;;5034737;28;20021;-75
2022/12/08 06:10:59;;;;;;;10.18;4.75;;;;;;;;;;5040286;28;20051;-75
2022/12/08 06:13:44;;;;;;;11.07;5.18;;;;;;;;;;5039647;28;20099;-75
2022/12/08 06:16:29;;;;;;;12.65;6.32;;;;;;;;;;5032386;28;20128;-75
2022/12/08 06:19:15;;;;;;;10.30;5.47;;;;;;;;;;5032626;28;20120;-75
2022/12/08 06:22:00;;;;;;;12.65;5.97;;;;;;;;;;5020726;28;20060;-76
2022/12/08 06:24:45;;;;;;;9.63;5.25;;;;;;;;;;5032666;28;20016;-75
2022/12/08 06:27:31;;;;;;;9.60;5.75;;;;;;;;;;5030429;28;20116;-79
2022/12/08 06:30:17;;;;;;;9.75;4.90;;;;;;;;;;5015729;28;20029;-72
2022/12/08 06:33:02;;;;;;;12.02;5.38;;;;;;;;;;5032925;28;20025;-72
2022/12/08 06:35:47;;;;;;;12.18;5.53;;;;;;;;;;5017641;28;20037;-76
2022/12/08 06:38:33;;;;;;;14.68;5.53;;;;;;;;;;5023128;28;20041;-72
2022/12/08 06:41:18;;;;;;;11.38;5.43;;;;;;;;;;5044598;28;20204;-73
2022/12/08 06:44:03;;;;;;;11.25;5.65;;;;;;;;;;5044595;28;20463;-74
2022/12/08 06:46:48;;;;;;;11.77;6.03;;;;;;;;;;5043306;28;20128;-76
2022/12/08 06:49:34;;;;;;;11.23;5.97;;;;;;;;;;5034971;28;20646;-73
2022/12/08 06:52:19;;;;;;;12.18;5.10;;;;;;;;;;5029730;28;20028;-72
2022/12/08 06:55:04;;;;;;;10.82;5.70;;;;;;;;;;5036264;28;20041;-73
2022/12/08 06:57:49;;;;;;;11.38;5.85;;;;;;;;;;5028016;28;20031;-73
2022/12/08 07:00:35;;;;;;;9.90;5.18;;;;;;;;;;5026496;28;20032;-72
2022/12/08 07:03:20;;;;;;;10.10;5.18;;;;;;;;;;5019025;28;20025;-76
2022/12/08 07:06:06;;;;;;;10.55;5.60;;;;;;;;;;5025939;28;20083;-77
2022/12/08 07:08:51;;;;;;;11.43;6.00;;;;;;;;;;5022341;28;20124;-78
2022/12/08 07:11:37;;;;;;;11.43;6.07;;;;;;;;;;5022959;28;20047;-80
2022/12/08 07:14:23;;;;;;;12.07;6.07;;;;;;;;;;5038888;28;20031;-78
2022/12/08 07:17:08;;;;;;;12.80;6.60;;;;;;;;;;5041900;28;20439;-77
2022/12/08 07:19:54;;;;;;;14.02;6.63;;;;;;;;;;5018578;28;20053;-78
2022/12/08 07:22:39;;;;;;;13.52;5.75;;;;;;;;;;5029212;28;20033;-74
2022/12/08 07:25:24;;;;;;;11.35;5.53;;;;;;;;;;5033333;28;20032;-77
2022/12/08 07:28:10;;;;;;;11.57;5.82;;;;;;;;;;5036226;28;20603;-76
2022/12/08 07:30:56;;;;;;;9.80;5.35;;;;;;;;;;5026529;28;20040;-77
2022/12/08 07:33:41;;;;;;;11.80;5.90;;;;;;;;;;5034269;28;20029;-77
2022/12/08 07:36:27;;;;;;;12.05;6.25;;;;;;;;;;5030028;28;20032;-76
2022/12/08 07:39:12;;;;;;;12.75;6.07;;;;;;;;;;5024321;28;20032;-77
2022/12/08 07:41:57;;;;;;;12.85;6.22;;;;;;;;;;5023819;28;20116;-71
2022/12/08 07:44:42;;;;;;;12.57;5.63;;;;;;;;;;5020361;28;20080;-70
2022/12/08 07:47:27;;;;;;;13.13;6.32;;;;;;;;;;5036346;28;20475;-70
2022/12/08 07:50:13;;;;;;;10.98;5.10;;;;;;;;;;5017151;28;20033;-69
2022/12/08 07:52:58;;;;;;;11.82;7.85;;;;;;;;;;5032328;28;20158;-70
2022/12/08 07:55:43;;;;;;;11.20;5.13;;;;;;;;;;5029101;28;20122;-73
2022/12/08 07:58:28;;;;;;;10.23;5.40;;;;;;;;;;5033696;28;20017;-73
2022/12/08 08:01:18;;;;;;;11.70;5.38;;;;;;;;;;5032320;28;20345;-77
2022/12/08 08:04:04;;;;;;;11.00;5.57;;;;;;;;;;5017988;28;20025;-78
2022/12/08 08:06:49;;;;;;;13.27;5.72;;;;;;;;;;5020078;28;20031;-75
2022/12/08 08:09:34;;;;;;;10.48;5.63;;;;;;;;;;5017996;28;20032;-78
2022/12/08 08:12:20;;;;;;;11.55;4.53;;;;;;;;;;5024225;28;20021;-77
2022/12/08 08:15:06;;;;;;;10.50;5.10;;;;;;;;;;5032437;28;20119;-76
2022/12/08 08:17:52;;;;;;;11.52;5.32;;;;;;;;;;5040293;28;20037;-75
2022/12/08 08:20:37;;;;;;;9.60;5.07;;;;;;;;;;5034129;28;20024;-75
2022/12/08 08:23:22;;;;;;;12.05;4.90;;;;;;;;;;5031165;28;20032;-76
2022/12/08 08:26:07;;;;;;;15.50;6.55;;;;;;;;;;5032958;28;20029;-76
2022/12/08 08:28:53;;;;;;;11.43;5.85;;;;;;;;;;5020167;28;20033;-73
2022/12/08 08:31:38;;;;;;;13.38;5.82;;;;;;;;;;5025277;28;20119;-73
2022/12/08 08:34:23;;;;;;;9.52;4.97;;;;;;;;;;5031973;28;20116;-74
2022/12/08 08:37:08;;;;;;;12.30;6.65;;;;;;;;;;5032219;28;20524;-75
2022/12/08 08:39:54;;;;;;;10.07;5.07;;;;;;;;;;5036555;28;20517;-73
2022/12/08 08:42:39;;;;;;;11.05;5.18;;;;;;;;;;5036884;28;20165;-71
2022/12/08 08:45:24;;;;;;;13.43;5.85;;;;;;;;;;5018624;28;20086;-72
2022/12/08 08:48:09;;;;;;;10.52;5.45;;;;;;;;;;5027069;28;20021;-73
2022/12/08 08:50:55;;;;;;;13.05;5.50;;;;;;;;;;5036380;28;20029;-71
2022/12/08 08:53:41;;;;;;;14.32;7.20;;;;;;;;;;5018127;28;20414;-70
2022/12/08 08:56:26;;;;;;;14.80;5.57;;;;;;;;;;5034485;28;20033;-71
2022/12/08 08:59:11;;;;;;;12.38;5.95;;;;;;;;;;5036316;28;20170;-73
2022/12/08 09:01:56;;;;;;;12.73;6.78;;;;;;;;;;5037787;28;20021;-71
2022/12/08 09:04:42;;;;;;;14.68;6.05;;;;;;;;;;5038418;28;20085;-72
2022/12/08 09:07:27;;;;;;;12.57;6.53;;;;;;;;;;5037656;28;20092;-73
2022/12/08 09:10:12;;;;;;;10.43;5.20;;;;;;;;;;5032084;28;20505;-73
2022/12/08 09:12:57;;;;;;;12.48;5.78;;;;;;;;;;5034676;28;20013;-72
2022/12/08 09:15:43;;;;;;;12.88;5.63;;;;;;;;;;5036272;28;20173;-79
2022/12/08 09:18:28;;;;;;;13.15;6.25;;;;;;;;;;5008417;28;20580;-76
2022/12/08 09:21:21;;;;;;;12.32;5.85;;;;;;;;;;5041822;28;20048;-77
2022/12/08 09:24:09;;;;;;;12.27;6.65;;;;;;;;;;5026960;28;20047;-75
2022/12/08 09:26:54;;;;;;;10.15;5.45;;;;;;;;;;5036470;28;20017;-75
2022/12/08 09:29:39;;;;;;;10.80;6.07;;;;;;;;;;5022034;28;20479;-77
2022/12/08 09:32:25;;;;;;;11.20;5.90;;;;;;;;;;5022804;28;20017;-76
2022/12/08 09:35:10;;;;;;;10.20;5.43;;;;;;;;;;5036105;28;20028;-76
2022/12/08 09:37:55;;;;;;;9.50;5.35;;;;;;;;;;5034670;28;20487;-75
2022/12/08 09:40:48;;;;;;;13.25;7.28;;;;;;;;;;5051021;28;20060;-75
2022/12/08 09:43:45;;;;;;;10.65;5.70;;;;;;;;;;5021434;28;20028;-74
2022/12/08 09:46:32;;;;;;;10.25;6.00;;;;;;;;;;5034257;28;20136;-74
2022/12/08 09:49:19;;;;;;;11.18;5.85;;;;;;;;;;5033948;28;20082;-74
2022/12/08 09:52:10;;;;;;;10.82;6.00;;;;;;;;;;5018342;28;20391;-80
2022/12/08 09:54:57;;;;;;;18.33;8.75;;;;;;;;;;5045838;28;20021;-76
2022/12/08 09:57:43;;;;;;;27.90;7.22;;;;;;;;;;5039155;28;20111;-77
2022/12/08 10:00:28;;;;;;;13.85;5.82;;;;;;;;;;5030651;28;20620;-79
2022/12/08 10:03:14;;;;;;;9.63;5.43;;;;;;;;;;5020274;28;20372;-76
2022/12/08 10:06:02;;;;;;;9.80;5.07;;;;;;;;;;5038764;28;20098;-68
2022/12/08 10:08:58;;;;;;;12.98;6.57;;;;;;;;;;5051278;28;20028;-74
2022/12/08 10:11:48;;;;;;;14.75;5.68;;;;;;;;;;5047326;28;20033;-74
2022/12/08 10:14:49;;;;;;;15.48;8.00;;;;;;;;;;5033868;28;20123;-74
2022/12/08 10:17:36;;;;;;;10.80;5.93;;;;;;;;;;5053175;28;20025;-73
2022/12/08 10:20:34;;;;;;;14.25;6.35;;;;;;;;;;5026820;28;20569;-74
2022/12/08 10:23:34;;;;;;;12.50;5.97;;;;;;;;;;5035095;28;20103;-73
2022/12/08 10:26:20;;;;;;;11.88;5.70;;;;;;;;;;5044759;28;20023;-77
2022/12/08 10:29:10;;;;;;;13.15;5.35;;;;;;;;;;5026058;28;20050;-74
2022/12/08 10:31:57;;;;;;;8.55;5.13;;;;;;;;;;5034663;28;20518;-74
2022/12/08 10:35:03;;;;;;;10.68;5.40;;;;;;;;;;5023100;28;20009;-76
2022/12/08 10:37:56;;;;;;;12.65;5.78;;;;;;;;;;5024050;28;20579;-74
2022/12/08 10:40:42;;;;;;;11.02;5.78;;;;;;;;;;5020502;28;20030;-74
2022/12/08 10:43:28;;;;;;;9.07;5.22;;;;;;;;;;5035790;28;20051;-75
2022/12/08 10:46:14;;;;;;;10.63;5.32;;;;;;;;;;5037480;28;20364;-72
2022/12/08 10:49:05;;;;;;;12.30;5.43;;;;;;;;;;5032441;28;20508;-72
2022/12/08 10:51:51;;;;;;;10.30;5.15;;;;;;;;;;5034371;28;20496;-75
2022/12/08 10:54:37;;;;;;;9.23;4.38;;;;;;;;;;5037637;28;20029;-75
2022/12/08 10:57:24;;;;;;;10.55;5.43;;;;;;;;;;5023733;28;20248;-74
2022/12/08 11:00:11;;;;;;;10.93;5.70;;;;;;;;;;5022163;28;20013;-74
2022/12/08 11:03:01;;;;;;;8.85;5.28;;;;;;;;;;5030603;28;20028;-69
2022/12/08 11:05:46;;;;;;;10.02;5.10;;;;;;;;;;5027806;28;20024;-70
2022/12/08 11:08:31;;;;;;;8.68;4.75;;;;;;;;;;5012322;28;20028;-69
2022/12/08 11:11:17;;;;;;;10.88;4.90;;;;;;;;;;5016595;28;20507;-68
2022/12/08 11:14:05;;;;;;;10.65;4.97;;;;;;;;;;5035289;28;20032;-69
2022/12/08 11:16:53;;;;;;;8.30;4.95;;;;;;;;;;5044008;28;20383;-68
2022/12/08 11:19:39;;;;;;;7.25;4.15;;;;;;;;;;5033016;28;20060;-77
2022/12/08 11:22:34;;;;;;;9.85;4.15;;;;;;;;;;5033956;28;20044;-70
2022/12/08 11:25:23;;;;;;;7.53;4.28;;;;;;;;;;5033644;28;20028;-71
2022/12/08 11:28:09;;;;;;;;;;;;;;;;;;5009386;28;20495;-69
2022/12/08 11:31:03;;;;;;;7.75;4.10;;;;;;;;;;5040305;28;19912;-78
2022/12/08 11:33:50;;;;;;;10.27;4.07;;;;;;;;;;5027918;28;20020;-75
2022/12/08 11:36:36;;;;;;;7.85;4.05;;;;;;;;;;5025621;28;20601;-77
2022/12/08 11:39:23;;;;;;;11.38;4.10;;;;;;;;;;5032758;28;20025;-76
2022/12/08 11:42:11;;;;;;;7.15;3.63;;;;;;;;;;5020601;28;20396;-77
2022/12/08 11:44:57;;;;;;;12.88;4.95;;;;;;;;;;5025730;28;20029;-78
2022/12/08 11:47:46;;;;;;;13.52;4.05;;;;;;;;;;5018243;28;20060;-75
2022/12/08 11:50:54;;;;;;;8.97;4.13;;;;;;;;;;5028379;28;20029;-74
2022/12/08 11:53:57;;;;;;;9.57;4.10;;;;;;;;;;5048646;28;20424;-73
2022/12/08 11:56:48;;;;;;;6.47;3.80;;;;;;;;;;5021943;28;20453;-78
2022/12/08 11:59:36;;;;;;;8.20;4.53;;;;;;;;;;5037641;28;20024;-70
2022/12/08 12:02:24;;;;;;;10.98;4.20;;;;;;;;;;5034321;28;20049;-71
2022/12/08 12:05:09;;;;;;;6.68;3.78;;;;;;;;;;5012800;28;20079;-69
2022/12/08 12:07:57;;;;;;;8.13;4.65;;;;;;;;;;5013543;28;20036;-71
2022/12/08 12:10:45;;;;;;;6.70;3.60;;;;;;;;;;5013963;28;20025;-72
2022/12/08 12:13:37;;;;;;;7.30;3.60;;;;;;;;;;5008009;28;20024;-70
2022/12/08 12:16:29;;;;;;;10.05;3.83;;;;;;;;;;5027293;28;20037;-75
2022/12/08 12:19:16;;;;;;;7.88;4.20;;;;;;;;;;5014862;28;20022;-76
2022/12/08 12:22:10;;;;;;;8.52;4.30;;;;;;;;;;5013277;28;20037;-75
2022/12/08 12:24:55;;;;;;;7.25;3.97;;;;;;;;;;5008780;28;20021;-75
2022/12/08 12:27:42;;;;;;;7.15;4.20;;;;;;;;;;5019031;28;20580;-75
2022/12/08 12:30:32;;;;;;;6.93;3.58;;;;;;;;;;5032757;28;20040;-76
2022/12/08 12:33:18;;;;;;;7.53;3.83;;;;;;;;;;5035206;28;20017;-69
2022/12/08 12:36:05;;;;;;;6.40;3.45;;;;;;;;;;5034041;28;20037;-74
2022/12/08 12:39:02;;;;;;;5.93;3.20;;;;;;;;;;5031841;28;20088;-75
2022/12/08 12:41:47;;;;;;;7.75;3.50;;;;;;;;;;5033110;28;20033;-77
2022/12/08 12:44:32;;;;;;;6.35;3.63;;;;;;;;;;5015843;28;20025;-77
2022/12/08 12:47:37;;;;;;;5.70;3.20;;;;;;;;;;5016874;28;20372;-76
2022/12/08 12:50:32;;;;;;;14.43;3.78;;;;;;;;;;5019110;28;20504;-76
2022/12/08 12:53:17;;;;;;;10.43;3.55;;;;;;;;;;5018258;28;20039;-73
2022/12/08 12:56:03;;;;;;;7.60;3.78;;;;;;;;;;5029450;28;20032;-69
2022/12/08 12:58:52;;;;;;;6.32;3.53;;;;;;;;;;5029510;28;20551;-71
2022/12/08 13:01:48;;;;;;;8.43;3.72;;;;;;;;;;5028111;28;20052;-71
2022/12/08 13:04:35;;;;;;;6.10;3.38;;;;;;;;;;5013393;28;20064;-70
2022/12/08 13:07:22;;;;;;;7.47;3.63;;;;;;;;;;5034656;28;20476;-68
2022/12/08 13:10:07;;;;;;;6.68;3.40;;;;;;;;;;5032485;28;20403;-73
2022/12/08 13:13:02;;;;;;;6.68;4.07;;;;;;;;;;5012937;28;20383;-75
2022/12/08 13:16:00;;;;;;;8.32;3.55;;;;;;;;;;5028858;28;20028;-71
2022/12/08 13:18:47;;;;;;;6.22;3.05;;;;;;;;;;5027179;28;20055;-74
2022/12/08 13:21:36;;;;;;;7.45;3.47;;;;;;;;;;5022497;28;20021;-74
2022/12/08 13:24:24;;;;;;;6.68;4.15;;;;;;;;;;5023078;28;20491;-72
2022/12/08 13:27:10;;;;;;;7.47;4.25;;;;;;;;;;5028774;28;20060;-71
2022/12/08 13:30:14;;;;;;;6.90;3.45;;;;;;;;;;5025009;28;20111;-71
2022/12/08 13:33:00;;;;;;;12.52;5.38;;;;;;;;;;5016494;28;20384;-78
2022/12/08 13:35:52;;;;;;;7.38;3.88;;;;;;;;;;4990813;28;20057;-76
2022/12/08 13:38:37;;;;;;;7.57;3.88;;;;;;;;;;4986101;28;20033;-76
2022/12/08 13:41:33;;;;;;;7.78;3.70;;;;;;;;;;4978484;28;20108;-75
2022/12/08 13:44:22;;;;;;;5.43;3.20;;;;;;;;;;4993783;28;20037;-74
2022/12/08 13:47:09;;;;;;;8.05;3.50;;;;;;;;;;5000620;28;20604;-72
2022/12/08 13:50:09;;;;;;;6.60;3.80;;;;;;;;;;4994573;28;20125;-70
2022/12/08 13:52:57;;;;;;;6.38;4.00;;;;;;;;;;4994865;28;20030;-72
2022/12/08 13:55:46;;;;;;;7.55;4.00;;;;;;;;;;4995008;28;20029;-70
2022/12/08 13:58:33;;;;;;;7.32;4.10;;;;;;;;;;4994590;28;20037;-71
2022/12/08 14:01:18;;;;;;;6.93;3.63;;;;;;;;;;4994319;28;20042;-71
2022/12/08 14:04:03;;;;;;;6.97;3.63;;;;;;;;;;4993879;28;20029;-71
2022/12/08 14:06:50;;;;;;;6.18;3.63;;;;;;;;;;5021702;28;20051;-71
2022/12/08 14:09:36;;;;;;;7.70;3.55;;;;;;;;;;5039527;28;20024;-70
2022/12/08 14:12:23;;;;;;;6.78;3.50;;;;;;;;;;5036567;28;20115;-70
2022/12/08 14:15:11;;;;;;;7.95;3.63;;;;;;;;;;5031173;28;20557;-69
2022/12/08 14:17:56;;;;;;;12.02;4.30;;;;;;;;;;5033394;28;20416;-69
2022/12/08 14:20:42;;;;;;;7.53;3.72;;;;;;;;;;5035365;28;20036;-68
2022/12/08 14:23:27;;;;;;;8.13;3.47;;;;;;;;;;5033437;28;20573;-69
2022/12/08 14:26:12;;;;;;;6.57;3.30;;;;;;;;;;5034373;28;20029;-77
2022/12/08 14:28:57;;;;;;;5.50;3.33;;;;;;;;;;5035131;28;20063;-70
2022/12/08 14:31:43;;;;;;;7.72;3.72;;;;;;;;;;5035334;28;20029;-71
2022/12/08 14:34:28;;;;;;;5.88;3.28;;;;;;;;;;5020602;28;20033;-71
2022/12/08 14:37:14;;;;;;;6.13;3.33;;;;;;;;;;5033670;28;20507;-71
2022/12/08 14:40:01;;;;;;;7.28;2.95;;;;;;;;;;5034419;28;20067;-70
2022/12/08 14:42:48;;;;;;;6.05;3.25;;;;;;;;;;5042611;28;20067;-80
2022/12/08 14:45:45;;;;;;;6.95;3.95;;;;;;;;;;5019197;28;20032;-72
2022/12/08 14:48:35;;;;;;;5.85;3.13;;;;;;;;;;5034698;28;20120;-71
2022/12/08 14:51:24;;;;;;;6.85;3.95;;;;;;;;;;5034338;28;20095;-71
2022/12/08 14:54:13;;;;;;;10.52;3.63;;;;;;;;;;5030545;28;20032;-72
2022/12/08 14:57:00;;;;;;;6.55;3.63;;;;;;;;;;5034497;28;20557;-71
2022/12/08 14:59:45;;;;;;;8.98;3.92;;;;;;;;;;5033463;28;20484;-72
2022/12/08 15:02:31;;;;;;;7.13;3.70;;;;;;;;;;5020147;28;20039;-71
2022/12/08 15:05:17;;;;;;;8.60;2.97;;;;;;;;;;5034676;28;20025;-79
2022/12/08 15:08:03;;;;;;;6.57;3.28;;;;;;;;;;5031205;28;20043;-77
2022/12/08 15:11:08;;;;;;;9.73;4.15;;;;;;;;;;5034944;28;20256;-78
2022/12/08 15:13:53;;;;;;;8.32;4.20;;;;;;;;;;5035573;28;20025;-80
2022/12/08 15:16:41;;;;;;;12.38;4.25;;;;;;;;;;5020371;28;20040;-78
2022/12/08 15:19:31;;;;;;;7.78;3.53;;;;;;;;;;5031910;28;20029;-72
2022/12/08 15:22:21;;;;;;;7.47;3.47;;;;;;;;;;5030130;28;20064;-72
2022/12/08 15:25:12;;;;;;;6.95;3.78;;;;;;;;;;5031586;28;20439;-70
2022/12/08 15:27:57;;;;;;;12.65;3.95;;;;;;;;;;5031388;28;20029;-71
2022/12/08 15:30:43;;;;;;;7.82;3.85;;;;;;;;;;5018187;28;20107;-71
2022/12/08 15:33:28;;;;;;;6.18;3.33;;;;;;;;;;5015827;28;20029;-70
2022/12/08 15:36:13;;;;;;;7.95;4.32;;;;;;;;;;5028170;28;20041;-71
2022/12/08 15:38:58;;;;;;;8.13;3.53;;;;;;;;;;5010985;28;20025;-71
2022/12/08 15:41:44;;;;;;;5.78;3.08;;;;;;;;;;5031499;28;20127;-70
2022/12/08 15:44:31;;;;;;;8.50;3.80;;;;;;;;;;5033064;28;20020;-71
2022/12/08 15:47:21;;;;;;;8.25;3.30;;;;;;;;;;5038838;28;20029;-71
2022/12/08 15:50:12;;;;;;;10.10;3.38;;;;;;;;;;5019793;28;20033;-71
2022/12/08 15:52:58;;;;;;;5.55;3.30;;;;;;;;;;5019107;28;20155;-72
2022/12/08 15:55:43;;;;;;;8.13;4.13;;;;;;;;;;5032634;28;20112;-74
2022/12/08 15:58:28;;;;;;;7.20;4.20;;;;;;;;;;5033791;28;20384;-72
2022/12/08 16:01:15;;;;;;;7.72;3.83;;;;;;;;;;5032219;28;20055;-71
2022/12/08 16:04:00;;;;;;;6.45;4.03;;;;;;;;;;5029725;28;20528;-70
2022/12/08 16:06:47;;;;;;;9.52;4.65;;;;;;;;;;5016257;28;20565;-71
2022/12/08 16:09:32;;;;;;;7.40;4.10;;;;;;;;;;5028093;28;20020;-71
2022/12/08 16:15:23;;;;;;;8.45;3.88;;;;;;;;;;5027197;28;20190;-78
2022/12/08 16:18:14;;;;;;;9.10;3.55;;;;;;;;;;5024184;28;20029;-73
2022/12/08 16:20:59;;;;;;;9.23;4.22;;;;;;;;;;5028505;28;20039;-72
2022/12/08 16:23:44;;;;;;;6.35;3.38;;;;;;;;;;5027082;28;20104;-72
2022/12/08 16:26:30;;;;;;;7.85;3.30;;;;;;;;;;5027867;28;20033;-72
2022/12/08 16:29:16;;;;;;;8.57;4.32;;;;;;;;;;5019079;28;20028;-73
2022/12/08 16:32:02;;;;;;;9.50;3.75;;;;;;;;;;5012904;28;20110;-74
2022/12/08 16:34:47;;;;;;;11.20;4.03;;;;;;;;;;5029701;28;20060;-82
2022/12/08 16:37:32;;;;;;;8.18;3.70;;;;;;;;;;5030542;28;20106;-74
2022/12/08 16:40:18;;;;;;;9.82;4.55;;;;;;;;;;5032988;28;20029;-74
2022/12/08 16:43:03;;;;;;;6.68;3.63;;;;;;;;;;5026527;28;20429;-75